Time;durP1;ratioP1;P1;durP2;ratioP2;P2;SDS_P1;SDS_P2;PMS_P1;PMS_P2;Temp;Humidity;BMP_temperature;BMP_pressure;BME280_temperature;BME280_humidity;BME280_pressure;Samples;Min_cycle;Max_cycle;Signal;HPM_P1;HPM_P2
2021/08/05 00:02:07;;;;;;;;;6.00;6.00;;;;;;;;5036677;28;47193;-82
2021/08/05 00:04:32;;;;;;;;;7.75;7.25;;;;;;;;5038291;28;47062;-82
2021/08/05 00:06:58;;;;;;;;;7.50;6.50;;;;;;;;5038209;28;47095;-82
2021/08/05 00:09:23;;;;;;;;;4.00;4.00;;;;;;;;5038062;28;46949;-82
2021/08/05 00:11:48;;;;;;;;;12.75;7.75;;;;;;;;5038260;28;46943;-82
2021/08/05 00:14:14;;;;;;;;;9.50;9.00;;;;;;;;5038090;28;47286;-83
2021/08/05 00:16:39;;;;;;;;;8.50;8.00;;;;;;;;5036516;28;48313;-83
2021/08/05 00:19:04;;;;;;;;;8.75;8.25;;;;;;;;5037975;28;46982;-83
2021/08/05 00:21:30;;;;;;;;;8.75;6.25;;;;;;;;5030327;28;46991;-83
2021/08/05 00:23:55;;;;;;;;;10.50;10.00;;;;;;;;5038770;28;46824;-82
2021/08/05 00:26:20;;;;;;;;;6.75;6.75;;;;;;;;5041438;28;48167;-82
2021/08/05 00:28:47;;;;;;;;;8.00;7.00;;;;;;;;5041266;28;46972;-82
2021/08/05 00:31:12;;;;;;;;;9.25;6.00;;;;;;;;5045257;28;46988;-82
2021/08/05 00:33:38;;;;;;;;;9.00;8.50;;;;;;;;5021813;28;46814;-82
2021/08/05 00:36:03;;;;;;;;;7.25;7.25;;;;;;;;5041454;28;47748;-82
2021/08/05 00:38:29;;;;;;;;;8.50;6.75;;;;;;;;5041278;28;47009;-82
2021/08/05 00:40:54;;;;;;;;;7.00;7.00;;;;;;;;5041229;28;47021;-82
2021/08/05 00:43:20;;;;;;;;;8.25;8.00;;;;;;;;5041324;28;47005;-82
2021/08/05 00:45:45;;;;;;;;;9.75;7.75;;;;;;;;5041153;28;46856;-83
2021/08/05 00:48:11;;;;;;;;;6.75;6.00;;;;;;;;5031455;28;47030;-83
2021/08/05 00:50:36;;;;;;;;;7.00;7.00;;;;;;;;5066700;28;29471;-82
2021/08/05 00:53:02;;;;;;;;;8.75;8.50;;;;;;;;5047714;28;46908;-82
2021/08/05 00:55:27;;;;;;;;;8.50;7.25;;;;;;;;5041174;28;48048;-82
2021/08/05 00:57:53;;;;;;;;;10.50;8.50;;;;;;;;5048859;28;47054;-82
2021/08/05 01:00:19;;;;;;;;;8.25;7.50;;;;;;;;5041305;28;47043;-81
2021/08/05 01:02:47;;;;;;;;;6.50;5.25;;;;;;;;5040609;28;47221;-84
2021/08/05 01:05:14;;;;;;;;;13.00;10.75;;;;;;;;5040706;28;46999;-83
2021/08/05 01:07:49;;;;;;;;;10.75;9.75;;;;;;;;5040976;28;47019;-82
2021/08/05 01:10:20;;;;;;;;;12.00;9.25;;;;;;;;5040995;28;47104;-82
2021/08/05 01:12:50;;;;;;;;;7.50;7.25;;;;;;;;5040775;28;47162;-82
2021/08/05 01:15:23;;;;;;;;;9.75;8.25;;;;;;;;5022747;28;46924;-82
2021/08/05 01:17:52;;;;;;;;;11.00;9.50;;;;;;;;5040459;28;46868;-82
2021/08/05 01:20:19;;;;;;;;;8.00;8.00;;;;;;;;5040804;28;47016;-82
2021/08/05 01:23:03;;;;;;;;;9.00;9.00;;;;;;;;5040916;28;46833;-82
2021/08/05 01:25:43;;;;;;;;;11.00;9.25;;;;;;;;5038979;28;49067;-82
2021/08/05 01:28:10;;;;;;;;;9.00;7.75;;;;;;;;5040441;28;46830;-82
2021/08/05 01:30:36;;;;;;;;;8.25;6.50;;;;;;;;5040545;28;46999;-82
2021/08/05 01:33:01;;;;;;;;;5.50;5.50;;;;;;;;5037386;28;47098;-82
2021/08/05 01:35:28;;;;;;;;;9.50;7.75;;;;;;;;5038540;28;47724;-82
2021/08/05 01:37:54;;;;;;;;;11.50;8.75;;;;;;;;5040307;28;46944;-82
2021/08/05 01:40:20;;;;;;;;;10.50;8.25;;;;;;;;5038890;28;46834;-81
2021/08/05 01:42:45;;;;;;;;;8.50;7.75;;;;;;;;5044979;28;46759;-81
2021/08/05 01:45:13;;;;;;;;;8.00;8.00;;;;;;;;5056690;28;29546;-81
2021/08/05 01:47:39;;;;;;;;;11.75;8.25;;;;;;;;5046852;28;46750;-82
2021/08/05 01:50:06;;;;;;;;;9.00;8.00;;;;;;;;5040240;28;46924;-82
2021/08/05 01:52:31;;;;;;;;;7.75;7.75;;;;;;;;5040402;28;47166;-82
2021/08/05 01:54:56;;;;;;;;;10.00;7.00;;;;;;;;5040001;28;46814;-82
2021/08/05 01:57:22;;;;;;;;;10.25;9.25;;;;;;;;5039826;28;47005;-82
2021/08/05 01:59:47;;;;;;;;;9.75;8.50;;;;;;;;5040039;28;46944;-82
2021/08/05 02:02:13;;;;;;;;;10.00;9.50;;;;;;;;5039853;28;47022;-82
2021/08/05 02:04:57;;;;;;;;;8.25;7.00;;;;;;;;5021869;28;48012;-82
2021/08/05 02:07:30;;;;;;;;;11.25;8.00;;;;;;;;5038578;28;47035;-82
2021/08/05 02:10:00;;;;;;;;;7.00;7.00;;;;;;;;5040072;28;47071;-82
2021/08/05 02:12:27;;;;;;;;;7.50;7.50;;;;;;;;5044836;28;47577;-82
2021/08/05 02:14:53;;;;;;;;;8.50;7.25;;;;;;;;5056431;28;29402;-82
2021/08/05 02:17:18;;;;;;;;;7.75;7.50;;;;;;;;5056088;28;29234;-82
2021/08/05 02:19:45;;;;;;;;;5.75;5.75;;;;;;;;5056505;28;29284;-82
2021/08/05 02:22:10;;;;;;;;;7.75;6.75;;;;;;;;5043482;28;29506;-82
2021/08/05 02:24:36;;;;;;;;;9.25;8.00;;;;;;;;5056204;28;30002;-82
2021/08/05 02:27:02;;;;;;;;;1.00;0.00;;;;;;;;5056140;28;29549;-82
2021/08/05 02:29:28;;;;;;;;;0.00;0.00;;;;;;;;5056481;28;29508;-82
2021/08/05 02:31:54;;;;;;;;;0.00;0.00;;;;;;;;5056095;28;29439;-82
2021/08/05 02:34:20;;;;;;;;;0.00;0.00;;;;;;;;5051805;28;29608;-82
2021/08/05 02:36:46;;;;;;;;;8.75;8.00;;;;;;;;5056018;28;29481;-82
2021/08/05 02:39:11;;;;;;;;;9.00;8.25;;;;;;;;5056247;28;29377;-82
2021/08/05 02:41:37;;;;;;;;;8.25;8.25;;;;;;;;5054428;28;29329;-82
2021/08/05 02:44:04;;;;;;;;;8.75;8.00;;;;;;;;5050192;28;46104;-82
2021/08/05 02:46:30;;;;;;;;;10.00;9.00;;;;;;;;5049185;28;45340;-82
2021/08/05 02:48:56;;;;;;;;;13.00;8.25;;;;;;;;5051187;28;45311;-82
2021/08/05 02:51:22;;;;;;;;;12.50;10.00;;;;;;;;5055801;28;29427;-82
2021/08/05 02:53:48;;;;;;;;;8.25;8.00;;;;;;;;5055962;28;29304;-82
2021/08/05 02:56:16;;;;;;;;;9.25;8.50;;;;;;;;5055633;28;29431;-82
2021/08/05 02:58:41;;;;;;;;;11.50;9.00;;;;;;;;5055736;28;29238;-82
2021/08/05 03:01:07;;;;;;;;;2.50;2.50;;;;;;;;5055433;28;29266;-82
2021/08/05 03:03:32;;;;;;;;;13.50;10.75;;;;;;;;5055578;28;29631;-82
2021/08/05 03:05:58;;;;;;;;;8.50;8.25;;;;;;;;5055339;28;29435;-82
2021/08/05 03:08:24;;;;;;;;;6.50;5.00;;;;;;;;5055553;28;29407;-82
2021/08/05 03:10:49;;;;;;;;;5.50;5.50;;;;;;;;5055345;28;29761;-82
2021/08/05 03:13:15;;;;;;;;;11.50;9.75;;;;;;;;5055585;28;29556;-81
2021/08/05 03:15:40;;;;;;;;;10.25;8.00;;;;;;;;5037195;28;30123;-81
2021/08/05 03:18:05;;;;;;;;;11.75;10.00;;;;;;;;5055320;28;29386;-81
2021/08/05 03:20:31;;;;;;;;;10.75;8.75;;;;;;;;5053930;28;29460;-81
2021/08/05 03:22:59;;;;;;;;;7.25;7.25;;;;;;;;5025834;28;30772;-81
2021/08/05 03:25:24;;;;;;;;;11.25;7.25;;;;;;;;5055094;28;29745;-81
2021/08/05 03:27:49;;;;;;;;;10.00;9.00;;;;;;;;5055261;28;29274;-81
2021/08/05 03:30:15;;;;;;;;;10.00;9.25;;;;;;;;5055174;28;29419;-81
2021/08/05 03:32:41;;;;;;;;;12.00;7.75;;;;;;;;5054977;28;29376;-81
2021/08/05 03:35:06;;;;;;;;;11.50;10.25;;;;;;;;5050351;28;29553;-81
2021/08/05 03:37:31;;;;;;;;;15.50;12.00;;;;;;;;5055089;28;29347;-81
2021/08/05 03:39:57;;;;;;;;;21.50;17.75;;;;;;;;5055078;28;29362;-81
2021/08/05 03:42:22;;;;;;;;;12.50;11.25;;;;;;;;5054862;28;30705;-82
2021/08/05 03:44:50;;;;;;;;;16.00;10.50;;;;;;;;5053445;28;29396;-81
2021/08/05 03:47:15;;;;;;;;;16.25;9.25;;;;;;;;5055012;28;29363;-81
2021/08/05 03:49:40;;;;;;;;;13.50;10.00;;;;;;;;5054875;28;29377;-81
2021/08/05 03:52:06;;;;;;;;;16.75;10.00;;;;;;;;5055013;28;29474;-82
2021/08/05 03:54:31;;;;;;;;;8.75;8.00;;;;;;;;5054568;28;29427;-82
2021/08/05 03:56:56;;;;;;;;;8.25;7.50;;;;;;;;5054905;28;29660;-82
2021/08/05 03:59:22;;;;;;;;;8.00;8.00;;;;;;;;5036816;28;29567;-81
2021/08/05 04:01:47;;;;;;;;;50.25;42.50;;;;;;;;5052916;28;29631;-81
2021/08/05 04:04:12;;;;;;;;;12.25;9.00;;;;;;;;5054766;28;30240;-81
2021/08/05 04:06:37;;;;;;;;;9.50;8.25;;;;;;;;5053364;28;29494;-82
2021/08/05 04:09:03;;;;;;;;;11.00;9.50;;;;;;;;5054753;28;29614;-82
2021/08/05 04:11:28;;;;;;;;;7.00;7.00;;;;;;;;5054617;28;29501;-82
2021/08/05 04:13:53;;;;;;;;;10.00;7.00;;;;;;;;5036266;28;29826;-82
2021/08/05 04:16:19;;;;;;;;;9.00;7.25;;;;;;;;5054719;28;29485;-82
2021/08/05 04:18:44;;;;;;;;;11.25;8.50;;;;;;;;5054583;28;29817;-81
2021/08/05 04:21:09;;;;;;;;;7.00;6.50;;;;;;;;5047535;28;29436;-81
2021/08/05 04:23:35;;;;;;;;;6.50;6.00;;;;;;;;5048445;28;29293;-81
2021/08/05 04:26:00;;;;;;;;;6.00;6.00;;;;;;;;5054588;28;29340;-81
2021/08/05 04:28:26;;;;;;;;;6.75;6.75;;;;;;;;5054382;28;29356;-81
2021/08/05 04:30:52;;;;;;;;;7.00;6.75;;;;;;;;5054196;28;29262;-81
2021/08/05 04:33:18;;;;;;;;;8.00;6.50;;;;;;;;5050019;28;29598;-81
2021/08/05 04:35:43;;;;;;;;;7.25;6.50;;;;;;;;5054601;28;29437;-81
2021/08/05 04:38:10;;;;;;;;;6.25;5.00;;;;;;;;5054518;28;29343;-82
2021/08/05 04:40:36;;;;;;;;;5.75;5.75;;;;;;;;5054250;28;29501;-82
2021/08/05 04:43:02;;;;;;;;;7.25;5.50;;;;;;;;5054117;28;29424;-82
2021/08/05 04:45:27;;;;;;;;;7.25;6.25;;;;;;;;5036299;28;29528;-82
2021/08/05 04:47:55;;;;;;;;;9.00;7.00;;;;;;;;5054148;28;29510;-82
2021/08/05 04:50:22;;;;;;;;;12.50;8.75;;;;;;;;5054157;28;29466;-82
2021/08/05 04:52:47;;;;;;;;;8.00;7.00;;;;;;;;5054173;28;29435;-82
2021/08/05 04:55:12;;;;;;;;;11.50;9.00;;;;;;;;5054276;28;29316;-82
2021/08/05 04:57:49;;;;;;;;;12.00;7.50;;;;;;;;5054190;28;29413;-82
2021/08/05 05:00:14;;;;;;;;;12.25;8.25;;;;;;;;5054031;28;30273;-82
2021/08/05 05:02:40;;;;;;;;;7.75;7.25;;;;;;;;5035733;28;30275;-82
2021/08/05 05:05:05;;;;;;;;;8.75;7.00;;;;;;;;5054041;28;29382;-82
2021/08/05 05:07:30;;;;;;;;;0.00;0.00;;;;;;;;5056176;28;29375;-82
2021/08/05 05:09:56;;;;;;;;;0.00;0.00;;;;;;;;5057565;28;29574;-81
2021/08/05 05:12:21;;;;;;;;;0.00;0.00;;;;;;;;5057393;28;29355;-81
2021/08/05 05:14:46;;;;;;;;;0.00;0.00;;;;;;;;5057590;28;29514;-81
2021/08/05 05:17:12;;;;;;;;;0.00;0.00;;;;;;;;5055970;28;29467;-81
2021/08/05 05:19:37;;;;;;;;;0.00;0.00;;;;;;;;5056064;28;29612;-81
2021/08/05 05:22:02;;;;;;;;;0.00;0.00;;;;;;;;5043656;28;29471;-81
2021/08/05 05:24:28;;;;;;;;;0.00;0.00;;;;;;;;5057553;28;29453;-81
2021/08/05 05:26:53;;;;;;;;;0.00;0.00;;;;;;;;5055784;28;29441;-82
2021/08/05 05:29:18;;;;;;;;;0.00;0.00;;;;;;;;5055702;28;32292;-82
2021/08/05 05:31:44;;;;;;;;;0.00;0.00;;;;;;;;5056496;28;38157;-82
2021/08/05 05:34:09;;;;;;;;;0.00;0.00;;;;;;;;5033789;28;29436;-81
2021/08/05 05:36:34;;;;;;;;;0.00;0.00;;;;;;;;5057252;28;29360;-81
2021/08/05 05:39:00;;;;;;;;;0.00;0.00;;;;;;;;5057007;28;29422;-82
2021/08/05 05:41:25;;;;;;;;;0.00;0.00;;;;;;;;5057024;28;29556;-81
2021/08/05 05:43:50;;;;;;;;;0.00;0.00;;;;;;;;5056746;28;29269;-81
2021/08/05 05:46:15;;;;;;;;;0.00;0.00;;;;;;;;5056958;28;29324;-81
2021/08/05 05:48:41;;;;;;;;;0.00;0.00;;;;;;;;5038778;28;30020;-81
2021/08/05 05:51:06;;;;;;;;;0.00;0.00;;;;;;;;5056856;28;29376;-81
2021/08/05 05:53:31;;;;;;;;;0.00;0.00;;;;;;;;5057001;28;29409;-82
2021/08/05 05:55:57;;;;;;;;;0.00;0.00;;;;;;;;5057029;28;29388;-82
2021/08/05 05:58:22;;;;;;;;;0.00;0.00;;;;;;;;5055323;28;31364;-81
2021/08/05 06:00:48;;;;;;;;;0.00;0.00;;;;;;;;5056527;28;29468;-82
2021/08/05 06:03:13;;;;;;;;;0.00;0.00;;;;;;;;5055135;28;44646;-81
2021/08/05 06:05:38;;;;;;;;;0.00;0.00;;;;;;;;5038306;28;42158;-81
2021/08/05 06:08:04;;;;;;;;;0.00;0.00;;;;;;;;5056519;28;29403;-81
2021/08/05 06:10:29;;;;;;;;;0.00;0.00;;;;;;;;5056663;28;29447;-81
2021/08/05 06:12:54;;;;;;;;;0.00;0.00;;;;;;;;5056188;28;29587;-81
2021/08/05 06:15:20;;;;;;;;;0.00;0.00;;;;;;;;5056803;28;29548;-81
2021/08/05 06:17:45;;;;;;;;;0.00;0.00;;;;;;;;5055360;28;29561;-81
2021/08/05 06:20:12;;;;;;;;;0.00;0.00;;;;;;;;5056005;28;29367;-81
2021/08/05 06:22:39;;;;;;;;;0.00;0.00;;;;;;;;5043696;28;29551;-82
2021/08/05 06:25:05;;;;;;;;;0.00;0.00;;;;;;;;5056587;28;29294;-82
2021/08/05 06:27:30;;;;;;;;;0.00;0.00;;;;;;;;5056064;28;29523;-82
2021/08/05 06:29:58;;;;;;;;;0.00;0.00;;;;;;;;5056410;28;29372;-82
2021/08/05 06:32:23;;;;;;;;;0.00;0.00;;;;;;;;5055983;28;29375;-81
2021/08/05 06:34:48;;;;;;;;;0.00;0.00;;;;;;;;5052613;28;29288;-81
2021/08/05 06:37:14;;;;;;;;;0.00;0.00;;;;;;;;5056213;28;30203;-81
2021/08/05 06:39:39;;;;;;;;;0.00;0.00;;;;;;;;5056304;28;29250;-81
2021/08/05 06:42:04;;;;;;;;;0.00;0.00;;;;;;;;5056044;28;29518;-81
2021/08/05 06:44:34;;;;;;;;;0.00;0.00;;;;;;;;5056214;28;29379;-81
2021/08/05 06:47:01;;;;;;;;;0.00;0.00;;;;;;;;5055823;28;30369;-82
2021/08/05 06:49:26;;;;;;;;;0.00;0.00;;;;;;;;5056490;28;29432;-82
2021/08/05 06:51:52;;;;;;;;;0.00;0.00;;;;;;;;5054662;28;29490;-81
2021/08/05 06:54:17;;;;;;;;;0.00;0.00;;;;;;;;5056167;28;29291;-81
2021/08/05 06:56:42;;;;;;;;;0.00;0.00;;;;;;;;5054327;28;29954;-81
2021/08/05 06:59:10;;;;;;;;;0.00;0.00;;;;;;;;5055716;28;29530;-81
2021/08/05 07:01:35;;;;;;;;;0.00;0.00;;;;;;;;5055491;28;29491;-81
2021/08/05 07:04:01;;;;;;;;;0.00;0.00;;;;;;;;5056018;28;29458;-81
2021/08/05 07:06:27;;;;;;;;;0.00;0.00;;;;;;;;5055533;28;30471;-81
2021/08/05 07:08:52;;;;;;;;;0.00;0.00;;;;;;;;5055890;28;29573;-81
2021/08/05 07:11:17;;;;;;;;;0.00;0.00;;;;;;;;5055572;28;29550;-81
2021/08/05 07:13:42;;;;;;;;;0.00;0.00;;;;;;;;5055663;28;29521;-81
2021/08/05 07:16:08;;;;;;;;;0.00;0.00;;;;;;;;5055208;28;29606;-81
2021/08/05 07:18:33;;;;;;;;;0.00;0.00;;;;;;;;5055603;28;29505;-81
2021/08/05 07:21:00;;;;;;;;;0.00;0.00;;;;;;;;5049988;28;29308;-81
2021/08/05 07:23:25;;;;;;;;;0.00;0.00;;;;;;;;5048039;28;29338;-82
2021/08/05 07:25:50;;;;;;;;;0.00;0.00;;;;;;;;5055161;28;29617;-82
2021/08/05 07:28:16;;;;;;;;;0.00;0.00;;;;;;;;5055297;28;29309;-82
2021/08/05 07:30:41;;;;;;;;;0.00;0.00;;;;;;;;5054460;28;29343;-82
2021/08/05 07:33:06;;;;;;;;;0.00;0.00;;;;;;;;5052249;28;29566;-82
2021/08/05 07:35:32;;;;;;;;;0.00;0.00;;;;;;;;5035843;28;30675;-82
2021/08/05 07:37:57;;;;;;;;;0.00;0.00;;;;;;;;5055260;28;29332;-82
2021/08/05 07:40:22;;;;;;;;;0.00;0.00;;;;;;;;5053528;28;29450;-81
2021/08/05 07:42:48;;;;;;;;;0.00;0.00;;;;;;;;5037424;28;29583;-81
2021/08/05 07:45:13;;;;;;;;;0.00;0.00;;;;;;;;5037075;28;30374;-81
2021/08/05 07:47:38;;;;;;;;;0.00;0.00;;;;;;;;5037009;28;29287;-81
2021/08/05 07:50:05;;;;;;;;;0.00;0.00;;;;;;;;5054892;28;29359;-81
2021/08/05 07:52:30;;;;;;;;;0.00;0.00;;;;;;;;5055096;28;29710;-81
2021/08/05 07:54:55;;;;;;;;;0.00;0.00;;;;;;;;5054737;28;29468;-81
2021/08/05 07:57:21;;;;;;;;;0.00;0.00;;;;;;;;5054671;28;29578;-81
2021/08/05 07:59:46;;;;;;;;;0.00;0.00;;;;;;;;5054848;28;29435;-81
2021/08/05 08:02:13;;;;;;;;;0.00;0.00;;;;;;;;5053203;28;29510;-81
2021/08/05 08:04:38;;;;;;;;;0.00;0.00;;;;;;;;5054723;28;29513;-81
2021/08/05 08:07:04;;;;;;;;;0.00;0.00;;;;;;;;5054898;28;29450;-81
2021/08/05 08:09:29;;;;;;;;;0.00;0.00;;;;;;;;5053152;28;29397;-82
2021/08/05 08:11:55;;;;;;;;;0.00;0.00;;;;;;;;5054851;28;29344;-82
2021/08/05 08:14:20;;;;;;;;;0.00;0.00;;;;;;;;5053156;28;29778;-82
2021/08/05 08:16:45;;;;;;;;;0.00;0.00;;;;;;;;5054562;28;29319;-81
2021/08/05 08:19:11;;;;;;;;;0.00;0.00;;;;;;;;5036703;28;29346;-81
2021/08/05 08:21:36;;;;;;;;;0.00;0.00;;;;;;;;5036586;28;29322;-81
2021/08/05 08:24:01;;;;;;;;;0.00;0.00;;;;;;;;5054718;28;29451;-81
2021/08/05 08:26:27;;;;;;;;;0.00;0.00;;;;;;;;5054460;28;29587;-81
2021/08/05 08:28:52;;;;;;;;;0.00;0.00;;;;;;;;5054332;28;29585;-81
2021/08/05 08:31:17;;;;;;;;;0.00;0.00;;;;;;;;5054414;28;29376;-81
2021/08/05 08:33:43;;;;;;;;;0.00;0.00;;;;;;;;5048964;28;29356;-81
2021/08/05 08:36:09;;;;;;;;;0.00;0.00;;;;;;;;5054517;28;29373;-81
2021/08/05 08:38:34;;;;;;;;;0.00;0.00;;;;;;;;5054348;28;29540;-81
2021/08/05 08:41:00;;;;;;;;;0.00;0.00;;;;;;;;5054588;28;29458;-81
2021/08/05 08:43:26;;;;;;;;;0.00;0.00;;;;;;;;5057489;28;29567;-81
2021/08/05 08:45:53;;;;;;;;;0.00;0.00;;;;;;;;5039399;28;29912;-81
2021/08/05 08:48:19;;;;;;;;;0.00;0.00;;;;;;;;5039759;28;29581;-81
2021/08/05 08:50:45;;;;;;;;;0.00;0.00;;;;;;;;5039825;28;29531;-81
2021/08/05 08:53:11;;;;;;;;;0.00;0.00;;;;;;;;5057559;28;29329;-81
2021/08/05 08:55:38;;;;;;;;;0.00;0.00;;;;;;;;5039907;28;29320;-81
2021/08/05 08:58:04;;;;;;;;;0.00;0.00;;;;;;;;5057677;28;29277;-81
2021/08/05 09:00:30;;;;;;;;;0.00;0.00;;;;;;;;5039605;28;29644;-81
2021/08/05 09:02:56;;;;;;;;;0.00;0.00;;;;;;;;5039537;28;30742;-81
2021/08/05 09:05:22;;;;;;;;;0.00;0.00;;;;;;;;5057722;28;29296;-81
2021/08/05 09:07:47;;;;;;;;;0.00;0.00;;;;;;;;5057464;28;29404;-81
2021/08/05 09:10:13;;;;;;;;;0.00;0.00;;;;;;;;5039567;28;29397;-81
2021/08/05 09:12:42;;;;;;;;;0.00;0.00;;;;;;;;5039003;28;30435;-81
2021/08/05 09:15:08;;;;;;;;;0.00;0.00;;;;;;;;5057552;28;29238;-81
2021/08/05 09:17:38;;;;;;;;;0.00;0.00;;;;;;;;5056994;28;29328;-81
2021/08/05 09:20:07;;;;;;;;;0.00;0.00;;;;;;;;5057648;28;29561;-81
2021/08/05 09:22:32;;;;;;;;;0.00;0.00;;;;;;;;5025702;28;29484;-81
2021/08/05 09:24:58;;;;;;;;;0.00;0.00;;;;;;;;5057422;28;29340;-81
2021/08/05 09:27:30;;;;;;;;;0.00;0.00;;;;;;;;5057006;28;29499;-81
2021/08/05 09:29:56;;;;;;;;;0.00;0.00;;;;;;;;5057398;28;29319;-80
2021/08/05 09:32:24;;;;;;;;;0.00;0.00;;;;;;;;5056855;28;29336;-81
2021/08/05 09:34:50;;;;;;;;;0.00;0.00;;;;;;;;5034347;28;30037;-81
2021/08/05 09:37:15;;;;;;;;;0.00;0.00;;;;;;;;5057123;28;29459;-81
2021/08/05 09:39:42;;;;;;;;;0.00;0.00;;;;;;;;5057155;28;29770;-81
2021/08/05 09:42:14;;;;;;;;;0.00;0.00;;;;;;;;5056773;28;29565;-81
2021/08/05 09:44:39;;;;;;;;;0.00;0.00;;;;;;;;5056858;28;29298;-81
2021/08/05 09:47:06;;;;;;;;;0.00;0.00;;;;;;;;5056932;28;29451;-81
2021/08/05 09:49:34;;;;;;;;;0.00;0.00;;;;;;;;5057157;28;29435;-81
2021/08/05 09:51:59;;;;;;;;;0.00;0.00;;;;;;;;5056916;28;30177;-81
2021/08/05 09:54:38;;;;;;;;;0.00;0.00;;;;;;;;5056460;28;29506;-81
2021/08/05 09:57:04;;;;;;;;;0.00;0.00;;;;;;;;5056892;28;29329;-81
2021/08/05 09:59:29;;;;;;;;;0.00;0.00;;;;;;;;5056815;28;29379;-81
2021/08/05 10:01:56;;;;;;;;;0.00;0.00;;;;;;;;5056285;28;29587;-80
2021/08/05 10:04:22;;;;;;;;;0.00;0.00;;;;;;;;5056736;28;29341;-80
2021/08/05 10:06:57;;;;;;;;;0.00;0.00;;;;;;;;5056643;28;29514;-80
2021/08/05 10:09:22;;;;;;;;;0.00;0.00;;;;;;;;5038643;28;29640;-80
2021/08/05 10:11:48;;;;;;;;;0.00;0.00;;;;;;;;5056386;28;29414;-80
2021/08/05 10:14:20;;;;;;;;;0.00;0.00;;;;;;;;5056208;28;29352;-80
2021/08/05 10:16:46;;;;;;;;;0.00;0.00;;;;;;;;5056366;28;29570;-80
2021/08/05 10:19:12;;;;;;;;;0.00;0.00;;;;;;;;5056393;28;29646;-80
2021/08/05 10:21:37;;;;;;;;;0.00;0.00;;;;;;;;5045401;28;29518;-80
2021/08/05 10:24:03;;;;;;;;;0.00;0.00;;;;;;;;5054481;28;29368;-80
2021/08/05 10:26:29;;;;;;;;;0.00;0.00;;;;;;;;5056247;28;29680;-80
2021/08/05 10:28:54;;;;;;;;;0.00;0.00;;;;;;;;5056192;28;29467;-80
2021/08/05 10:31:20;;;;;;;;;0.00;0.00;;;;;;;;5055997;28;29537;-81
2021/08/05 10:33:46;;;;;;;;;0.00;0.00;;;;;;;;5058824;28;29290;-80
2021/08/05 10:36:12;;;;;;;;;0.00;0.00;;;;;;;;5038158;28;29740;-80
2021/08/05 10:38:37;;;;;;;;;0.00;0.00;;;;;;;;5056087;28;29278;-80
2021/08/05 10:41:02;;;;;;;;;0.00;0.00;;;;;;;;5054709;28;46088;-81
2021/08/05 10:43:28;;;;;;;;;0.00;0.00;;;;;;;;5055878;28;29357;-80
2021/08/05 10:45:54;;;;;;;;;0.00;0.00;;;;;;;;5055924;28;29695;-80
2021/08/05 10:48:20;;;;;;;;;0.00;0.00;;;;;;;;5055952;28;29321;-80
2021/08/05 10:50:46;;;;;;;;;0.00;0.00;;;;;;;;5052419;28;46393;-79
2021/08/05 10:53:30;;;;;;;;;0.00;0.00;;;;;;;;5054116;28;44575;-80
2021/08/05 10:56:16;;;;;;;;;0.00;0.00;;;;;;;;5055025;28;42857;-80
2021/08/05 10:59:01;;;;;;;;;0.00;0.00;;;;;;;;5044868;28;29338;-80
2021/08/05 11:01:45;;;;;;;;;0.00;0.00;;;;;;;;5042675;28;47157;-80
2021/08/05 11:04:29;;;;;;;;;0.00;0.00;;;;;;;;5037066;28;46995;-80
2021/08/05 11:06:54;;;;;;;;;0.00;0.00;;;;;;;;5037837;28;46794;-81
2021/08/05 11:09:27;;;;;;;;;0.00;0.00;;;;;;;;5039366;28;47051;-81
2021/08/05 11:11:53;;;;;;;;;0.00;0.00;;;;;;;;5039397;28;46838;-80
2021/08/05 11:14:21;;;;;;;;;0.00;0.00;;;;;;;;5050049;28;46765;-80
2021/08/05 11:17:04;;;;;;;;;0.00;0.00;;;;;;;;5054244;28;46203;-81
2021/08/05 11:19:37;;;;;;;;;0.00;0.00;;;;;;;;5044311;28;46997;-80
2021/08/05 11:22:21;;;;;;;;;0.00;0.00;;;;;;;;5038603;28;46840;-80
2021/08/05 11:24:47;;;;;;;;;0.00;0.00;;;;;;;;5051390;28;46900;-80
2021/08/05 11:27:13;;;;;;;;;0.00;0.00;;;;;;;;5037275;28;46822;-80
2021/08/05 11:29:38;;;;;;;;;0.00;0.00;;;;;;;;5055457;28;29373;-80
2021/08/05 11:32:22;;;;;;;;;0.00;0.00;;;;;;;;5054993;28;29359;-80
2021/08/05 11:34:56;;;;;;;;;0.00;0.00;;;;;;;;5045995;28;46252;-80
2021/08/05 11:37:22;;;;;;;;;0.00;0.00;;;;;;;;5053705;28;43109;-80
2021/08/05 11:39:49;;;;;;;;;0.00;0.00;;;;;;;;5054100;28;42359;-80
2021/08/05 11:42:15;;;;;;;;;0.00;0.00;;;;;;;;5050190;28;47016;-80
2021/08/05 11:44:44;;;;;;;;;0.00;0.00;;;;;;;;5055023;28;29514;-80
2021/08/05 11:47:17;;;;;;;;;0.00;0.00;;;;;;;;5055101;28;29622;-80
2021/08/05 11:49:42;;;;;;;;;0.00;0.00;;;;;;;;5055132;28;29450;-80
2021/08/05 11:52:13;;;;;;;;;0.00;0.00;;;;;;;;5050402;28;46785;-80
2021/08/05 11:54:40;;;;;;;;;0.00;0.00;;;;;;;;5046254;28;46147;-80
2021/08/05 11:57:07;;;;;;;;;0.00;0.00;;;;;;;;5039108;28;46961;-80
2021/08/05 11:59:33;;;;;;;;;0.00;0.00;;;;;;;;5048275;28;46270;-80
2021/08/05 12:02:02;;;;;;;;;0.00;0.00;;;;;;;;5050414;28;46273;-80
2021/08/05 12:04:27;;;;;;;;;0.00;0.00;;;;;;;;5047286;28;47089;-80
2021/08/05 12:06:52;;;;;;;;;0.00;0.00;;;;;;;;5054864;28;29590;-80
2021/08/05 12:09:17;;;;;;;;;0.00;0.00;;;;;;;;5054286;28;38295;-80
2021/08/05 12:11:43;;;;;;;;;0.00;0.00;;;;;;;;5039782;28;46880;-81
2021/08/05 12:14:14;;;;;;;;;0.00;0.00;;;;;;;;5038055;28;46967;-80
2021/08/05 12:16:43;;;;;;;;;0.00;0.00;;;;;;;;5052925;28;46406;-81
2021/08/05 12:19:08;;;;;;;;;0.00;0.00;;;;;;;;5057883;28;38216;-80
2021/08/05 12:21:34;;;;;;;;;0.00;0.00;;;;;;;;5050413;28;46916;-80
2021/08/05 12:23:59;;;;;;;;;0.00;0.00;;;;;;;;5041728;28;46924;-80
2021/08/05 12:26:35;;;;;;;;;0.00;0.00;;;;;;;;5041574;28;46929;-80
2021/08/05 12:29:07;;;;;;;;;0.00;0.00;;;;;;;;5023799;28;47010;-80
2021/08/05 12:31:33;;;;;;;;;0.00;0.00;;;;;;;;5041398;28;47763;-80
2021/08/05 12:33:59;;;;;;;;;0.00;0.00;;;;;;;;5037177;28;47017;-81
2021/08/05 12:36:24;;;;;;;;;0.00;0.00;;;;;;;;5045792;28;46767;-80
2021/08/05 12:38:57;;;;;;;;;0.00;0.00;;;;;;;;5057859;28;29280;-80
2021/08/05 12:41:24;;;;;;;;;0.00;0.00;;;;;;;;5057798;28;30489;-80
2021/08/05 12:43:50;;;;;;;;;0.00;0.00;;;;;;;;5057121;28;38264;-80
2021/08/05 12:46:16;;;;;;;;;0.00;0.00;;;;;;;;5056351;28;44589;-79
2021/08/05 12:48:41;;;;;;;;;0.00;0.00;;;;;;;;5053732;28;44627;-80
2021/08/05 12:51:12;;;;;;;;;0.00;0.00;;;;;;;;5042500;28;47057;-80
2021/08/05 12:53:37;;;;;;;;;0.00;0.00;;;;;;;;5041489;28;47104;-80
2021/08/05 12:56:04;;;;;;;;;0.00;0.00;;;;;;;;5044534;28;46894;-80
2021/08/05 12:58:30;;;;;;;;;0.00;0.00;;;;;;;;5044332;28;46958;-81
2021/08/05 13:01:14;;;;;;;;;0.00;0.00;;;;;;;;5022743;28;49385;-80
2021/08/05 13:03:40;;;;;;;;;0.00;0.00;;;;;;;;5042208;28;46968;-79
2021/08/05 13:06:06;;;;;;;;;0.00;0.00;;;;;;;;5042859;28;47003;-80
2021/08/05 13:08:35;;;;;;;;;0.00;0.00;;;;;;;;5041387;28;47145;-80
2021/08/05 13:11:01;;;;;;;;;0.00;0.00;;;;;;;;5040708;28;47909;-80
2021/08/05 13:13:44;;;;;;;;;0.00;0.00;;;;;;;;5040869;28;46969;-80
2021/08/05 13:16:20;;;;;;;;;0.00;0.00;;;;;;;;5022771;28;47089;-80
2021/08/05 13:18:59;;;;;;;;;0.00;0.00;;;;;;;;5041180;28;46987;-80
2021/08/05 13:21:24;;;;;;;;;0.00;0.00;;;;;;;;5014060;28;48298;-80
2021/08/05 13:23:49;;;;;;;;;0.00;0.00;;;;;;;;5036852;28;46939;-80
2021/08/05 13:26:31;;;;;;;;;0.00;0.00;;;;;;;;5040883;28;46825;-80
2021/08/05 13:28:56;;;;;;;;;0.00;0.00;;;;;;;;5040052;28;47277;-80
2021/08/05 13:31:21;;;;;;;;;0.00;0.00;;;;;;;;5040618;28;46854;-80
2021/08/05 13:33:47;;;;;;;;;0.00;0.00;;;;;;;;5035757;28;46984;-81
2021/08/05 13:36:12;;;;;;;;;0.00;0.00;;;;;;;;5040875;28;46907;-80
2021/08/05 13:38:44;;;;;;;;;0.00;0.00;;;;;;;;5040775;28;46801;-80
2021/08/05 13:41:09;;;;;;;;;0.00;0.00;;;;;;;;5040554;28;47347;-81
2021/08/05 13:43:34;;;;;;;;;0.00;0.00;;;;;;;;5038950;28;47012;-79
2021/08/05 13:46:00;;;;;;;;;0.00;0.00;;;;;;;;5040498;28;47032;-80
2021/08/05 13:48:28;;;;;;;;;0.00;0.00;;;;;;;;5040480;28;47191;-80
2021/08/05 13:50:54;;;;;;;;;0.00;0.00;;;;;;;;5040573;28;46987;-80
2021/08/05 13:53:19;;;;;;;;;0.00;0.00;;;;;;;;5040332;28;46732;-80
2021/08/05 13:55:44;;;;;;;;;0.00;0.00;;;;;;;;5040494;28;46868;-80
2021/08/05 13:58:12;;;;;;;;;0.00;0.00;;;;;;;;5040217;28;46818;-80
2021/08/05 14:00:37;;;;;;;;;0.00;0.00;;;;;;;;5040071;28;46998;-81
2021/08/05 14:03:03;;;;;;;;;0.00;0.00;;;;;;;;5022321;28;47747;-80
2021/08/05 14:05:28;;;;;;;;;0.00;0.00;;;;;;;;5040179;28;46960;-80
2021/08/05 14:07:54;;;;;;;;;0.00;0.00;;;;;;;;5040391;28;46981;-80
2021/08/05 14:10:20;;;;;;;;;0.00;0.00;;;;;;;;5040264;28;46974;-80
2021/08/05 14:12:46;;;;;;;;;0.00;0.00;;;;;;;;5039737;28;47071;-81
2021/08/05 14:15:12;;;;;;;;;0.00;0.00;;;;;;;;5040071;28;46935;-80
2021/08/05 14:17:37;;;;;;;;;0.00;0.00;;;;;;;;5039967;28;46824;-80
2021/08/05 14:20:04;;;;;;;;;0.00;0.00;;;;;;;;5040015;28;47898;-80
2021/08/05 14:22:29;;;;;;;;;0.00;0.00;;;;;;;;5026752;28;46825;-80
2021/08/05 14:24:54;;;;;;;;;0.00;0.00;;;;;;;;5038700;28;47010;-80
2021/08/05 14:27:20;;;;;;;;;0.00;0.00;;;;;;;;5039817;28;46798;-80
2021/08/05 14:29:45;;;;;;;;;0.00;0.00;;;;;;;;5040100;28;47111;-80
2021/08/05 14:32:11;;;;;;;;;0.00;0.00;;;;;;;;5039363;28;47050;-80
2021/08/05 14:34:37;;;;;;;;;0.00;0.00;;;;;;;;5017368;28;46954;-80
2021/08/05 14:37:02;;;;;;;;;0.00;0.00;;;;;;;;5039879;28;47251;-81
2021/08/05 14:39:28;;;;;;;;;0.00;0.00;;;;;;;;5038644;28;47374;-81